createdAt,value
2023-03-27T00:00:21.550Z,967.52
2023-03-27T00:00:52.849Z,967.62
2023-03-27T00:01:24.101Z,967.62
2023-03-27T00:01:56.945Z,967.83
2023-03-27T00:02:28.272Z,967.83
2023-03-27T00:03:00.940Z,967.83
2023-03-27T00:03:32.192Z,967.83
2023-03-27T00:04:05.013Z,967.62
2023-03-27T00:04:36.015Z,967.62
2023-03-27T00:05:09.121Z,967.62
2023-03-27T00:05:40.152Z,967.83
2023-03-27T00:06:13.090Z,967.83
2023-03-27T00:06:43.973Z,967.83
2023-03-27T00:07:16.868Z,967.83
2023-03-27T00:07:48.124Z,967.73
2023-03-27T00:08:20.808Z,967.73
2023-03-27T00:08:52.046Z,967.52
2023-03-27T00:09:24.749Z,967.52
2023-03-27T00:09:56.122Z,967.73
2023-03-27T00:10:28.995Z,967.73
2023-03-27T00:11:00.105Z,967.83
2023-03-27T00:11:32.873Z,967.83
2023-03-27T00:12:03.966Z,967.83
2023-03-27T00:12:37.659Z,967.83
2023-03-27T00:13:08.219Z,967.73
2023-03-27T00:13:49.107Z,967.73
2023-03-27T00:14:12.013Z,967.73
2023-03-27T00:14:44.782Z,967.73
2023-03-27T00:15:17.015Z,967.73
2023-03-27T00:15:48.910Z,967.73
2023-03-27T00:16:20.197Z,967.73
2023-03-27T00:16:53.066Z,967.83
2023-03-27T00:17:24.093Z,967.83
2023-03-27T00:17:56.883Z,967.73
2023-03-27T00:18:28.095Z,967.73
2023-03-27T00:19:00.872Z,967.73
2023-03-27T00:19:31.993Z,967.73
2023-03-27T00:20:04.950Z,967.73
2023-03-27T00:20:36.117Z,967.73
2023-03-27T00:21:08.742Z,967.52
2023-03-27T00:21:39.973Z,967.83
2023-03-27T00:22:12.799Z,967.83
2023-03-27T00:22:44.135Z,967.83
2023-03-27T00:23:17.079Z,967.83
2023-03-27T00:23:48.088Z,967.83
2023-03-27T00:24:20.858Z,967.83
2023-03-27T00:24:51.998Z,967.62
2023-03-27T00:25:25.082Z,967.62
2023-03-27T00:25:56.119Z,967.73
2023-03-27T00:26:28.860Z,967.73
2023-03-27T00:26:59.964Z,967.62
2023-03-27T00:27:32.881Z,967.62
2023-03-27T00:28:04.140Z,967.73
2023-03-27T00:28:36.866Z,967.73
2023-03-27T00:29:08.214Z,967.62
2023-03-27T00:29:43.762Z,967.93
2023-03-27T00:30:13.091Z,967.93
2023-03-27T00:30:44.838Z,967.62
2023-03-27T00:31:16.074Z,967.62
2023-03-27T00:31:48.948Z,967.83
2023-03-27T00:32:20.052Z,967.83
2023-03-27T00:32:52.779Z,967.83
2023-03-27T00:33:24.061Z,967.83
2023-03-27T00:33:56.996Z,967.62
2023-03-27T00:34:27.981Z,967.62
2023-03-27T00:35:05.151Z,967.73
2023-03-27T00:35:32.176Z,967.73
2023-03-27T00:36:03.999Z,967.93
2023-03-27T00:36:37.086Z,967.93
2023-03-27T00:37:08.101Z,967.83
2023-03-27T00:37:43.992Z,968.03
2023-03-27T00:38:12.005Z,968.03
2023-03-27T00:38:45.066Z,967.83
2023-03-27T00:39:16.151Z,967.83
2023-03-27T00:39:48.775Z,967.83
2023-03-27T00:40:20.381Z,967.83
2023-03-27T00:40:52.902Z,967.93
2023-03-27T00:41:24.326Z,967.93
2023-03-27T00:41:56.787Z,967.83
2023-03-27T00:42:28.118Z,967.83
2023-03-27T00:43:03.049Z,967.83
2023-03-27T00:43:31.992Z,967.83
2023-03-27T00:44:04.781Z,967.93
2023-03-27T00:44:38.585Z,967.93
2023-03-27T00:45:09.844Z,967.62
2023-03-27T00:45:40.133Z,967.93
2023-03-27T00:46:13.142Z,967.93
2023-03-27T00:46:44.311Z,967.73
2023-03-27T00:47:16.906Z,967.73
2023-03-27T00:47:48.290Z,967.83
2023-03-27T00:48:20.806Z,967.83
2023-03-27T00:48:52.208Z,967.83
2023-03-27T00:49:24.798Z,967.83
2023-03-27T00:49:56.087Z,968.13
2023-03-27T00:50:29.256Z,968.13
2023-03-27T00:51:00.028Z,968.03
2023-03-27T00:51:32.713Z,968.03
2023-03-27T00:52:04.135Z,967.83
2023-03-27T00:52:36.847Z,967.83
2023-03-27T00:53:08.045Z,968.03
2023-03-27T00:53:24.169Z,968.03
2023-03-27T00:53:56.022Z,967.93
2023-03-27T00:54:28.107Z,967.93
2023-03-27T00:55:00.140Z,967.83
2023-03-27T00:55:32.374Z,967.83
2023-03-27T00:56:04.839Z,967.93
2023-03-27T00:56:36.208Z,967.93
2023-03-27T00:57:08.913Z,967.93
2023-03-27T00:57:40.043Z,968.13
2023-03-27T00:58:13.883Z,968.13
2023-03-27T00:58:44.108Z,968.13
2023-03-27T00:59:16.777Z,968.13
2023-03-27T00:59:48.047Z,968.03
2023-03-27T01:00:22.046Z,968.03
2023-03-27T01:00:51.936Z,968.03
2023-03-27T01:01:25.065Z,968.03
2023-03-27T01:01:56.183Z,968.03
2023-03-27T01:02:29.067Z,968.03
2023-03-27T01:03:00.933Z,968.03
2023-03-27T01:03:32.848Z,968.03
2023-03-27T01:04:04.209Z,967.93
2023-03-27T01:04:36.796Z,967.93
2023-03-27T01:05:08.291Z,968.13
2023-03-27T01:05:48.706Z,968.13
2023-03-27T01:06:11.949Z,968.13
2023-03-27T01:06:44.017Z,967.83
2023-03-27T01:07:18.660Z,967.83
2023-03-27T01:08:00.228Z,967.93
2023-03-27T01:08:20.772Z,967.93
2023-03-27T01:08:52.008Z,968.03
2023-03-27T01:09:24.893Z,968.03
2023-03-27T01:09:56.274Z,967.93
2023-03-27T01:10:29.088Z,967.93
2023-03-27T01:11:00.144Z,968.03
2023-03-27T01:11:32.893Z,968.03
2023-03-27T01:12:04.014Z,967.93
2023-03-27T01:12:40.437Z,967.93
2023-03-27T01:13:08.129Z,968.03
2023-03-27T01:13:40.758Z,967.93
2023-03-27T01:14:12.063Z,967.93
2023-03-27T01:14:44.861Z,968.13
2023-03-27T01:15:16.895Z,968.13
2023-03-27T01:15:49.071Z,967.83
2023-03-27T01:16:20.050Z,967.83
2023-03-27T01:16:55.870Z,968.13
2023-03-27T01:17:24.237Z,968.13
2023-03-27T01:17:56.960Z,968.23
2023-03-27T01:18:28.146Z,968.23
2023-03-27T01:19:01.682Z,968.13
2023-03-27T01:19:32.103Z,968.13
2023-03-27T01:20:05.162Z,968.03
2023-03-27T01:20:36.112Z,968.03
2023-03-27T01:21:08.816Z,968.23
2023-03-27T01:21:40.014Z,968.23
2023-03-27T01:22:13.188Z,968.23
2023-03-27T01:22:44.048Z,968.23
2023-03-27T01:23:17.191Z,968.23
2023-03-27T01:23:58.972Z,968.13
2023-03-27T01:24:20.991Z,968.13
2023-03-27T01:24:51.992Z,968.23
2023-03-27T01:25:25.197Z,968.23
2023-03-27T01:25:56.222Z,968.23
2023-03-27T01:26:35.694Z,968.23
2023-03-27T01:27:00.059Z,968.23
2023-03-27T01:27:33.096Z,968.23
2023-03-27T01:28:03.902Z,968.23
2023-03-27T01:28:36.852Z,968.23
2023-03-27T01:29:08.122Z,968.23
2023-03-27T01:29:43.734Z,968.13
2023-03-27T01:30:13.032Z,968.13
2023-03-27T01:30:45.310Z,968.34
2023-03-27T01:31:16.343Z,968.34
2023-03-27T01:31:49.124Z,968.44
2023-03-27T01:32:20.180Z,968.44
2023-03-27T01:32:53.181Z,968.23
2023-03-27T01:33:24.339Z,968.23
2023-03-27T01:33:57.892Z,968.54
2023-03-27T01:34:28.274Z,968.54
2023-03-27T01:35:03.239Z,968.54
2023-03-27T01:35:32.319Z,968.54
2023-03-27T01:36:08.011Z,968.44
2023-03-27T01:36:36.305Z,968.44
2023-03-27T01:37:09.007Z,968.34
2023-03-27T01:37:40.079Z,968.61
2023-03-27T01:38:13.081Z,968.61
2023-03-27T01:38:44.244Z,968.71
2023-03-27T01:39:16.943Z,968.71
2023-03-27T01:39:48.029Z,968.44
2023-03-27T01:40:24.250Z,968.44
2023-03-27T01:40:51.994Z,968.61
2023-03-27T01:41:24.838Z,968.61
2023-03-27T01:41:56.115Z,968.34
2023-03-27T01:42:29.128Z,968.34
2023-03-27T01:43:00.120Z,968.71
2023-03-27T01:43:33.672Z,968.71
2023-03-27T01:44:04.126Z,968.61
2023-03-27T01:44:44.634Z,968.61
2023-03-27T01:45:09.058Z,968.54
2023-03-27T01:45:41.024Z,968.54
2023-03-27T01:46:12.390Z,968.54
2023-03-27T01:46:46.035Z,968.61
2023-03-27T01:47:16.205Z,968.61
2023-03-27T01:47:49.514Z,968.61
2023-03-27T01:48:20.214Z,968.61
2023-03-27T01:48:52.934Z,968.71
2023-03-27T01:49:24.290Z,968.71
2023-03-27T01:49:57.254Z,968.81
2023-03-27T01:50:28.539Z,968.81
2023-03-27T01:51:01.098Z,968.61
2023-03-27T01:51:32.278Z,968.61
2023-03-27T01:52:05.229Z,968.71
2023-03-27T01:52:36.255Z,968.71
2023-03-27T01:53:12.097Z,968.81
2023-03-27T01:53:40.305Z,968.91
2023-03-27T01:54:12.993Z,968.91
2023-03-27T01:54:44.185Z,969.01
2023-03-27T01:55:17.556Z,969.01
2023-03-27T01:55:48.124Z,969.01
2023-03-27T01:56:26.163Z,969.01
2023-03-27T01:56:52.144Z,969.01
2023-03-27T01:57:24.098Z,969.01
2023-03-27T01:57:57.152Z,968.91
2023-03-27T01:58:28.252Z,968.91
2023-03-27T01:59:01.354Z,968.91
2023-03-27T01:59:32.069Z,968.91
2023-03-27T02:00:18.597Z,969.11
2023-03-27T02:00:51.432Z,969.11
2023-03-27T02:01:09.119Z,968.71
2023-03-27T02:01:40.151Z,969.01
2023-03-27T02:02:13.342Z,969.01
2023-03-27T02:02:44.187Z,969.01
2023-03-27T02:03:16.897Z,969.01
2023-03-27T02:03:48.067Z,969.11
2023-03-27T02:04:20.959Z,969.11
2023-03-27T02:04:51.971Z,969.11
2023-03-27T02:05:25.479Z,969.11
2023-03-27T02:05:56.136Z,969.32
2023-03-27T02:06:28.802Z,969.32
2023-03-27T02:07:00.102Z,969.11
2023-03-27T02:07:32.926Z,969.11
2023-03-27T02:08:04.207Z,969.01
2023-03-27T02:08:36.995Z,969.01
2023-03-27T02:09:08.224Z,969.22
2023-03-27T02:09:56.455Z,969.22
2023-03-27T02:10:28.638Z,969.22
2023-03-27T02:11:00.110Z,969.22
2023-03-27T02:11:37.058Z,969.22
2023-03-27T02:12:04.166Z,969.32
2023-03-27T02:12:36.367Z,969.32
2023-03-27T02:13:08.125Z,969.42
2023-03-27T02:13:40.245Z,969.32
2023-03-27T02:14:12.340Z,969.32
2023-03-27T02:14:44.343Z,969.32
2023-03-27T02:15:22.601Z,969.32
2023-03-27T02:15:48.488Z,969.22
2023-03-27T02:16:20.344Z,969.22
2023-03-27T02:16:52.195Z,969.11
2023-03-27T02:17:25.325Z,969.11
2023-03-27T02:17:56.199Z,969.52
2023-03-27T02:18:29.131Z,969.52
2023-03-27T02:19:00.168Z,969.32
2023-03-27T02:19:39.760Z,969.32
2023-03-27T02:20:04.488Z,969.52
2023-03-27T02:20:36.024Z,969.52
2023-03-27T02:21:08.744Z,969.52
2023-03-27T02:21:40.166Z,969.42
2023-03-27T02:22:13.119Z,969.42
2023-03-27T02:22:44.098Z,969.52
2023-03-27T02:23:17.214Z,969.52
2023-03-27T02:23:48.187Z,969.52
2023-03-27T02:24:21.805Z,969.52
2023-03-27T02:24:52.121Z,969.72
2023-03-27T02:25:25.608Z,969.72
2023-03-27T02:25:56.079Z,969.83
2023-03-27T02:26:28.927Z,969.83
2023-03-27T02:27:00.268Z,969.72
2023-03-27T02:27:36.181Z,969.72
2023-03-27T02:28:04.030Z,969.52
2023-03-27T02:28:36.906Z,969.52
2023-03-27T02:29:08.165Z,969.42
2023-03-27T02:29:44.728Z,969.83
2023-03-27T02:30:13.059Z,969.83
2023-03-27T02:30:44.254Z,969.93
2023-03-27T02:31:33.681Z,969.93
2023-03-27T02:31:48.033Z,969.72
2023-03-27T02:32:20.190Z,969.72
2023-03-27T02:32:52.209Z,969.83
2023-03-27T02:33:24.079Z,969.83
2023-03-27T02:33:56.113Z,969.93
2023-03-27T02:34:28.239Z,969.93
2023-03-27T02:35:00.035Z,969.72
2023-03-27T02:35:33.202Z,969.72
2023-03-27T02:36:04.196Z,969.83
2023-03-27T02:36:37.105Z,969.83
2023-03-27T02:37:08.060Z,970.03
2023-03-27T02:37:41.039Z,969.83
2023-03-27T02:38:12.221Z,969.83
2023-03-27T02:38:44.779Z,970.03
2023-03-27T02:39:16.077Z,970.03
2023-03-27T02:39:48.869Z,970.13
2023-03-27T02:40:20.438Z,970.13
2023-03-27T02:40:53.182Z,970.23
2023-03-27T02:41:24.352Z,970.23
2023-03-27T02:41:57.251Z,970.03
2023-03-27T02:42:28.140Z,970.03
2023-03-27T02:43:01.308Z,970.13
2023-03-27T02:43:32.297Z,970.13
2023-03-27T02:44:05.018Z,970.13
2023-03-27T02:44:36.216Z,970.13
2023-03-27T02:45:11.071Z,970.33
2023-03-27T02:45:40.554Z,970.13
2023-03-27T02:46:13.009Z,970.13
2023-03-27T02:46:44.227Z,970.23
2023-03-27T02:47:18.675Z,970.23
2023-03-27T02:47:48.559Z,970.23
2023-03-27T02:48:20.891Z,970.23
2023-03-27T02:48:52.310Z,970.13
2023-03-27T02:49:25.157Z,970.13
2023-03-27T02:49:56.074Z,970.23
2023-03-27T02:50:29.194Z,970.23
2023-03-27T02:51:00.139Z,970.13
2023-03-27T02:51:32.944Z,970.13
2023-03-27T02:52:04.113Z,970.33
2023-03-27T02:52:39.007Z,970.33
2023-03-27T02:53:08.164Z,970.54
2023-03-27T02:53:40.861Z,970.33
2023-03-27T02:54:12.025Z,970.33
2023-03-27T02:54:44.929Z,970.44
2023-03-27T02:55:16.360Z,970.44
2023-03-27T02:55:49.838Z,970.33
2023-03-27T02:56:20.139Z,970.33
2023-03-27T02:56:53.028Z,970.44
2023-03-27T02:57:25.270Z,970.44
2023-03-27T02:57:57.042Z,970.54
2023-03-27T02:58:28.196Z,970.54
2023-03-27T02:59:06.063Z,970.54
2023-03-27T02:59:32.208Z,970.54
2023-03-27T03:00:05.687Z,970.44
2023-03-27T03:00:36.145Z,970.44
2023-03-27T03:01:08.207Z,970.44
2023-03-27T03:01:40.952Z,970.74
2023-03-27T03:02:12.276Z,970.74
2023-03-27T03:02:46.165Z,970.81
2023-03-27T03:03:16.191Z,970.81
2023-03-27T03:03:51.854Z,970.44
2023-03-27T03:04:20.209Z,970.44
2023-03-27T03:04:53.610Z,970.74
2023-03-27T03:05:24.496Z,970.74
2023-03-27T03:05:57.202Z,970.74
2023-03-27T03:06:28.054Z,970.74
2023-03-27T03:07:00.977Z,970.74
2023-03-27T03:07:32.177Z,970.74
2023-03-27T03:08:06.033Z,970.54
2023-03-27T03:08:36.032Z,970.54
2023-03-27T03:09:09.006Z,970.64
2023-03-27T03:09:41.106Z,970.74
2023-03-27T03:10:13.188Z,970.74
2023-03-27T03:10:44.171Z,970.74
2023-03-27T03:11:16.966Z,970.74
2023-03-27T03:11:48.053Z,970.74
2023-03-27T03:12:20.917Z,970.74
2023-03-27T03:12:52.144Z,970.64
2023-03-27T03:13:24.987Z,970.64
2023-03-27T03:13:56.149Z,970.64
2023-03-27T03:14:28.909Z,970.64
2023-03-27T03:15:00.190Z,970.81
2023-03-27T03:15:33.956Z,970.81
2023-03-27T03:16:04.129Z,970.91
2023-03-27T03:16:37.258Z,970.91
2023-03-27T03:17:08.114Z,970.81
2023-03-27T03:17:41.006Z,970.81
2023-03-27T03:18:12.121Z,970.81
2023-03-27T03:18:44.872Z,970.91
2023-03-27T03:19:16.201Z,970.91
2023-03-27T03:19:49.107Z,971.11
2023-03-27T03:20:20.512Z,971.11
2023-03-27T03:20:53.120Z,971.11
2023-03-27T03:21:24.146Z,971.11
2023-03-27T03:21:56.883Z,971.01
2023-03-27T03:22:28.231Z,971.01
2023-03-27T03:23:10.641Z,970.81
2023-03-27T03:23:32.130Z,970.81
2023-03-27T03:24:04.181Z,971.32
2023-03-27T03:24:37.186Z,971.32
2023-03-27T03:25:08.419Z,971.21
2023-03-27T03:25:24.265Z,971.21
2023-03-27T03:25:56.490Z,971.11
2023-03-27T03:26:28.219Z,971.11
2023-03-27T03:27:00.300Z,971.32
2023-03-27T03:27:32.144Z,971.32
2023-03-27T03:28:05.053Z,971.32
2023-03-27T03:28:36.226Z,971.32
2023-03-27T03:29:10.461Z,971.32
2023-03-27T03:29:40.074Z,971.42
2023-03-27T03:30:16.629Z,971.42
2023-03-27T03:30:44.506Z,971.52
2023-03-27T03:31:17.122Z,971.52
2023-03-27T03:31:48.169Z,971.52
2023-03-27T03:32:21.971Z,971.52
2023-03-27T03:32:52.082Z,971.52
2023-03-27T03:33:24.961Z,971.52
2023-03-27T03:33:56.238Z,971.21
2023-03-27T03:34:29.132Z,971.21
2023-03-27T03:35:00.532Z,971.32
2023-03-27T03:35:39.848Z,971.32
2023-03-27T03:36:04.326Z,971.62
2023-03-27T03:36:36.102Z,971.62
2023-03-27T03:37:08.837Z,971.42
2023-03-27T03:37:40.149Z,971.42
2023-03-27T03:38:13.293Z,971.42
2023-03-27T03:38:44.203Z,971.72
2023-03-27T03:39:16.809Z,971.72
2023-03-27T03:39:48.199Z,971.52
2023-03-27T03:40:36.518Z,971.52
2023-03-27T03:41:08.268Z,971.52
2023-03-27T03:41:40.079Z,971.82
2023-03-27T03:42:22.848Z,971.82
2023-03-27T03:42:44.368Z,971.52
2023-03-27T03:43:17.071Z,971.52
2023-03-27T03:43:48.161Z,971.82
2023-03-27T03:44:21.161Z,971.82
2023-03-27T03:44:52.358Z,971.72
2023-03-27T03:45:26.002Z,971.72
2023-03-27T03:45:56.418Z,971.72
2023-03-27T03:46:44.495Z,971.72
2023-03-27T03:47:16.152Z,971.72
2023-03-27T03:47:48.249Z,971.82
2023-03-27T03:48:21.029Z,971.82
2023-03-27T03:48:52.263Z,971.93
2023-03-27T03:49:25.329Z,971.93
2023-03-27T03:49:56.312Z,971.93
2023-03-27T03:50:29.189Z,971.93
2023-03-27T03:51:00.289Z,971.93
2023-03-27T03:51:33.142Z,971.93
2023-03-27T03:52:05.092Z,971.93
2023-03-27T03:52:39.002Z,971.93
2023-03-27T03:53:08.264Z,972.03
2023-03-27T03:53:40.906Z,972.03
2023-03-27T03:54:12.165Z,972.03
2023-03-27T03:54:46.583Z,972.13
2023-03-27T03:55:16.392Z,972.13
2023-03-27T03:55:50.524Z,972.13
2023-03-27T03:56:20.245Z,972.13
2023-03-27T03:56:52.982Z,972.13
2023-03-27T03:57:24.138Z,972.13
2023-03-27T03:57:57.162Z,972.03
2023-03-27T03:58:34.722Z,972.03
2023-03-27T03:59:05.729Z,972.23
2023-03-27T03:59:32.234Z,972.23
2023-03-27T04:00:05.640Z,971.93
2023-03-27T04:00:36.099Z,971.93
2023-03-27T04:01:08.086Z,972.43
2023-03-27T04:01:40.160Z,972.33
2023-03-27T04:02:12.368Z,972.33
2023-03-27T04:02:44.244Z,972.33
2023-03-27T04:03:16.286Z,972.33
2023-03-27T04:03:48.473Z,972.33
2023-03-27T04:04:20.069Z,972.33
2023-03-27T04:04:52.991Z,972.43
2023-03-27T04:05:24.494Z,972.43
2023-03-27T04:05:57.016Z,972.54
2023-03-27T04:06:28.206Z,972.54
2023-03-27T04:07:00.878Z,972.43
2023-03-27T04:07:32.259Z,972.43
2023-03-27T04:08:05.050Z,972.64
2023-03-27T04:08:36.206Z,972.64
2023-03-27T04:09:08.973Z,972.74
2023-03-27T04:09:40.379Z,972.74
2023-03-27T04:10:13.428Z,972.74
2023-03-27T04:10:44.322Z,972.74
2023-03-27T04:11:17.024Z,972.74
2023-03-27T04:11:48.236Z,972.84
2023-03-27T04:12:21.272Z,972.84
2023-03-27T04:12:52.354Z,972.64
2023-03-27T04:13:26.013Z,972.64
2023-03-27T04:13:56.234Z,972.64
2023-03-27T04:14:29.119Z,972.64
2023-03-27T04:15:01.688Z,972.64
2023-03-27T04:15:33.248Z,972.64
2023-03-27T04:16:04.370Z,972.74
2023-03-27T04:16:37.933Z,972.74
2023-03-27T04:17:08.233Z,972.91
2023-03-27T04:17:41.153Z,972.91
2023-03-27T04:18:12.387Z,972.91
2023-03-27T04:18:50.866Z,972.74
2023-03-27T04:19:16.063Z,972.74
2023-03-27T04:19:48.088Z,972.84
2023-03-27T04:20:20.547Z,972.84
2023-03-27T04:20:52.073Z,972.64
2023-03-27T04:21:24.908Z,972.64
2023-03-27T04:21:56.214Z,972.91
2023-03-27T04:22:29.142Z,972.91
2023-03-27T04:23:00.187Z,972.84
2023-03-27T04:23:32.868Z,972.84
2023-03-27T04:24:04.162Z,972.91
2023-03-27T04:24:36.947Z,972.91
2023-03-27T04:25:08.391Z,972.91
2023-03-27T04:25:43.004Z,972.84
2023-03-27T04:26:12.177Z,972.84
2023-03-27T04:26:44.883Z,973.01
2023-03-27T04:27:16.092Z,973.01
2023-03-27T04:27:48.951Z,973.01
2023-03-27T04:28:20.011Z,973.01
2023-03-27T04:28:53.076Z,973.21
2023-03-27T04:29:24.366Z,973.21
2023-03-27T04:30:05.246Z,973.01
2023-03-27T04:30:28.402Z,973.01
2023-03-27T04:31:00.393Z,973.11
2023-03-27T04:31:32.526Z,973.11
2023-03-27T04:32:04.277Z,973.42
2023-03-27T04:32:37.095Z,973.42
2023-03-27T04:33:08.364Z,973.21
2023-03-27T04:33:41.043Z,973.21
2023-03-27T04:34:12.247Z,973.21
2023-03-27T04:35:00.712Z,973.31
2023-03-27T04:35:32.335Z,973.31
2023-03-27T04:36:05.990Z,973.31
2023-03-27T04:36:36.351Z,973.31
2023-03-27T04:37:08.257Z,973.42
2023-03-27T04:37:40.324Z,973.11
2023-03-27T04:38:12.237Z,973.11
2023-03-27T04:38:44.055Z,973.21
2023-03-27T04:39:16.164Z,973.21
2023-03-27T04:39:48.292Z,973.21
2023-03-27T04:40:20.403Z,973.21
2023-03-27T04:40:53.035Z,973.62
2023-03-27T04:41:24.237Z,973.62
2023-03-27T04:41:56.909Z,973.42
2023-03-27T04:42:28.011Z,973.42
2023-03-27T04:43:02.727Z,973.42
2023-03-27T04:43:32.328Z,973.42
2023-03-27T04:44:04.901Z,973.62
2023-03-27T04:44:36.125Z,973.62
2023-03-27T04:45:09.885Z,973.52
2023-03-27T04:45:40.178Z,973.42
2023-03-27T04:46:12.991Z,973.42
2023-03-27T04:46:44.236Z,973.52
2023-03-27T04:47:20.866Z,973.52
2023-03-27T04:47:48.425Z,973.42
2023-03-27T04:48:20.238Z,973.42
2023-03-27T04:48:52.218Z,973.52
2023-03-27T04:49:24.294Z,973.52
2023-03-27T04:49:56.239Z,973.52
2023-03-27T04:50:28.631Z,973.52
2023-03-27T04:51:00.342Z,973.62
2023-03-27T04:51:32.156Z,973.62
2023-03-27T04:52:05.239Z,973.42
2023-03-27T04:52:36.224Z,973.42
2023-03-27T04:53:08.815Z,973.72
2023-03-27T04:53:40.165Z,973.72
2023-03-27T04:54:12.954Z,973.72
2023-03-27T04:54:44.260Z,973.82
2023-03-27T04:55:17.054Z,973.82
2023-03-27T04:55:48.181Z,973.92
2023-03-27T04:56:21.066Z,973.92
2023-03-27T04:56:52.180Z,973.72
2023-03-27T04:57:24.950Z,973.72
2023-03-27T04:57:56.242Z,973.82
2023-03-27T04:58:28.953Z,973.82
2023-03-27T04:59:00.043Z,973.72
2023-03-27T04:59:33.051Z,973.72
2023-03-27T05:00:05.615Z,973.92
2023-03-27T05:00:38.402Z,973.92
2023-03-27T05:01:08.242Z,973.72
2023-03-27T05:01:44.006Z,973.92
2023-03-27T05:02:12.277Z,973.92
2023-03-27T05:02:45.145Z,974.03
2023-03-27T05:03:16.278Z,974.03
2023-03-27T05:03:49.285Z,973.92
2023-03-27T05:04:20.279Z,973.92
2023-03-27T05:04:54.512Z,973.82
2023-03-27T05:05:24.433Z,973.82
2023-03-27T05:05:57.288Z,973.92
2023-03-27T05:06:28.092Z,973.92
2023-03-27T05:07:01.165Z,974.03
2023-03-27T05:07:32.227Z,974.03
2023-03-27T05:08:04.980Z,974.03
2023-03-27T05:08:36.175Z,974.03
2023-03-27T05:09:09.178Z,974.03
2023-03-27T05:09:40.350Z,974.03
2023-03-27T05:10:13.110Z,974.03
2023-03-27T05:10:44.228Z,974.13
2023-03-27T05:11:17.028Z,974.13
2023-03-27T05:11:48.052Z,973.92
2023-03-27T05:12:21.166Z,973.92
2023-03-27T05:12:52.229Z,974.33
2023-03-27T05:13:25.158Z,974.33
2023-03-27T05:13:56.129Z,974.03
2023-03-27T05:14:29.984Z,974.03
2023-03-27T05:15:00.142Z,974.43
2023-03-27T05:15:34.191Z,974.43
2023-03-27T05:16:04.388Z,974.33
2023-03-27T05:16:37.410Z,974.33
2023-03-27T05:17:08.546Z,974.13
2023-03-27T05:17:42.296Z,974.23
2023-03-27T05:18:12.525Z,974.23
2023-03-27T05:18:45.238Z,974.43
2023-03-27T05:19:16.343Z,974.43
2023-03-27T05:19:49.977Z,974.43
2023-03-27T05:20:20.704Z,974.43
2023-03-27T05:20:53.080Z,974.43
2023-03-27T05:21:24.451Z,974.43
2023-03-27T05:21:57.547Z,974.33
2023-03-27T05:22:28.480Z,974.33
2023-03-27T05:23:01.530Z,974.43
2023-03-27T05:23:32.528Z,974.43
2023-03-27T05:24:05.424Z,974.63
2023-03-27T05:24:36.533Z,974.63
2023-03-27T05:25:09.685Z,974.43
2023-03-27T05:25:40.659Z,974.53
2023-03-27T05:26:14.914Z,974.53
2023-03-27T05:26:44.490Z,974.43
2023-03-27T05:27:17.465Z,974.43
2023-03-27T05:27:48.603Z,974.74
2023-03-27T05:28:21.484Z,974.74
2023-03-27T05:28:52.569Z,974.63
2023-03-27T05:29:25.383Z,974.63
2023-03-27T05:29:56.616Z,974.63
2023-03-27T05:30:30.770Z,974.63
2023-03-27T05:31:00.983Z,974.63
2023-03-27T05:31:33.630Z,974.63
2023-03-27T05:32:04.354Z,974.63
2023-03-27T05:32:38.183Z,974.63
2023-03-27T05:33:08.539Z,974.43
2023-03-27T05:33:42.372Z,974.84
2023-03-27T05:34:12.325Z,974.84
2023-03-27T05:34:45.351Z,974.74
2023-03-27T05:35:16.572Z,974.74
2023-03-27T05:35:49.155Z,974.84
2023-03-27T05:36:20.495Z,974.84
2023-03-27T05:36:53.143Z,974.74
2023-03-27T05:37:27.006Z,974.74
2023-03-27T05:37:57.283Z,974.74
2023-03-27T05:38:28.477Z,974.74
2023-03-27T05:39:01.363Z,974.94
2023-03-27T05:39:32.360Z,974.94
2023-03-27T05:40:05.411Z,974.74
2023-03-27T05:40:36.520Z,974.74
2023-03-27T05:41:09.903Z,975.01
2023-03-27T05:41:40.454Z,975.01
2023-03-27T05:42:13.528Z,975.01
2023-03-27T05:42:44.504Z,975.11
2023-03-27T05:43:18.266Z,975.11
2023-03-27T05:43:50.161Z,974.94
2023-03-27T05:44:21.435Z,974.94
2023-03-27T05:44:52.395Z,975.11
2023-03-27T05:45:31.576Z,975.11
2023-03-27T05:45:56.651Z,975.11
2023-03-27T05:46:28.452Z,975.11
2023-03-27T05:47:00.696Z,974.94
2023-03-27T05:47:32.526Z,974.94
2023-03-27T05:48:04.586Z,975.11
2023-03-27T05:48:36.337Z,975.11
2023-03-27T05:49:08.335Z,975.11
2023-03-27T05:49:40.530Z,975.11
2023-03-27T05:50:12.609Z,975.11
2023-03-27T05:50:45.312Z,975.21
2023-03-27T05:51:16.482Z,975.21
2023-03-27T05:51:49.394Z,975.21
2023-03-27T05:52:20.393Z,975.21
2023-03-27T05:52:53.146Z,975.11
2023-03-27T05:53:27.975Z,975.11
2023-03-27T05:53:57.467Z,975.31
2023-03-27T05:54:28.388Z,975.31
2023-03-27T05:55:01.578Z,975.11
2023-03-27T05:55:32.497Z,975.11
2023-03-27T05:56:05.186Z,975.52
2023-03-27T05:56:36.379Z,975.52
2023-03-27T05:57:09.564Z,975.31
2023-03-27T05:57:40.373Z,975.11
2023-03-27T05:58:14.302Z,975.11
2023-03-27T05:58:44.414Z,975.41
2023-03-27T05:59:17.459Z,975.41
2023-03-27T05:59:48.357Z,975.41
2023-03-27T06:00:22.571Z,975.41
2023-03-27T06:00:52.441Z,975.21
2023-03-27T06:01:25.194Z,975.21
2023-03-27T06:01:56.517Z,975.41
2023-03-27T06:02:30.421Z,975.41
2023-03-27T06:03:00.582Z,975.52
2023-03-27T06:03:33.604Z,975.52
2023-03-27T06:04:04.543Z,975.52
2023-03-27T06:04:37.426Z,975.52
2023-03-27T06:05:08.546Z,975.72
2023-03-27T06:05:41.131Z,975.52
2023-03-27T06:06:12.475Z,975.52
2023-03-27T06:06:51.057Z,975.62
2023-03-27T06:07:16.356Z,975.62
2023-03-27T06:07:48.489Z,975.72
2023-03-27T06:08:21.145Z,975.72
2023-03-27T06:08:52.562Z,975.62
2023-03-27T06:09:25.236Z,975.62
2023-03-27T06:09:56.627Z,975.41
2023-03-27T06:10:29.782Z,975.41
2023-03-27T06:11:00.431Z,975.92
2023-03-27T06:11:33.207Z,975.92
2023-03-27T06:12:04.519Z,975.72
2023-03-27T06:12:38.205Z,975.72
2023-03-27T06:13:08.340Z,975.72
2023-03-27T06:13:41.194Z,975.82
2023-03-27T06:14:12.509Z,975.82
2023-03-27T06:14:45.420Z,975.82
2023-03-27T06:15:17.241Z,975.82
2023-03-27T06:15:49.514Z,975.92
2023-03-27T06:16:20.418Z,975.92
2023-03-27T06:16:53.311Z,975.72
2023-03-27T06:17:24.578Z,975.72
2023-03-27T06:17:57.470Z,976.02
2023-03-27T06:18:28.389Z,976.02
2023-03-27T06:19:04.100Z,976.02
2023-03-27T06:19:32.539Z,976.02
2023-03-27T06:20:05.533Z,976.02
2023-03-27T06:20:36.415Z,976.02
2023-03-27T06:21:09.473Z,976.12
2023-03-27T06:21:41.077Z,976.12
2023-03-27T06:22:13.308Z,976.12
2023-03-27T06:22:44.785Z,976.02
2023-03-27T06:23:17.748Z,976.02
2023-03-27T06:23:48.301Z,976.12
2023-03-27T06:24:21.208Z,976.12
2023-03-27T06:24:53.597Z,976.23
2023-03-27T06:25:26.993Z,976.23
2023-03-27T06:25:57.488Z,976.12
2023-03-27T06:26:30.120Z,976.12
2023-03-27T06:27:00.517Z,976.23
2023-03-27T06:27:33.479Z,976.23
2023-03-27T06:28:04.523Z,976.33
2023-03-27T06:28:38.178Z,976.33
2023-03-27T06:29:08.792Z,976.33
2023-03-27T06:29:41.329Z,976.23
2023-03-27T06:30:13.740Z,976.23
2023-03-27T06:30:46.314Z,976.33
2023-03-27T06:31:16.362Z,976.33
2023-03-27T06:31:49.245Z,976.33
2023-03-27T06:32:20.442Z,976.33
2023-03-27T06:32:53.471Z,976.33
2023-03-27T06:33:24.422Z,976.33
2023-03-27T06:33:57.151Z,976.43
2023-03-27T06:34:28.482Z,976.43
2023-03-27T06:35:01.695Z,976.43
2023-03-27T06:35:32.517Z,976.43
2023-03-27T06:36:05.408Z,976.33
2023-03-27T06:36:36.181Z,976.33
2023-03-27T06:37:09.436Z,976.53
2023-03-27T06:37:40.631Z,976.43
2023-03-27T06:38:16.527Z,976.43
2023-03-27T06:38:44.429Z,976.73
2023-03-27T06:39:17.354Z,976.73
2023-03-27T06:39:48.549Z,976.63